Golden, CO (80401)

10:38 PM MDT on October 20, 2014 (GMT -0600)
Lookout Pointe | Change Station
CLOSE
Current Station
Personal Weather Station
Location: Golden, CO
Elevation: 5940 ft
Nearby Weather Stations

Elev 5940 ft 39.75 °N, 105.23 °W | Updated 4 seconds ago

Clear
Clear
59.9 °F
Feels Like 59.9 °F
N
8.0
Wind Variable Wind from WSW
Gusts 16.0 mph

Today
High -- | Low -- °F
--% Chance of Precip.
Yesterday
High -- | Low -- °F
Precip. -- in
7:16 AM 6:14 PM
Waning Crescent, 7% visible
Pressure 30.09 in
Visibility 20.0 miles
Clouds Few 12000 ft
Dew Point 36 °F
Humidity 41%
Rainfall 0.00 in
Snow Depth Not available.
UV 0 out of 12
Pollen 2.90 out of 12
Air Quality Not available.
Flu Activity Not available.
METAR KBJC 210353Z VRB03KT 20SM FEW120 14/04 A3009 RMK LAST

More Conditions Fewer Conditions

Pressure 30.09 in
Visibility 20.0 miles
Clouds Few 12000 ft
Dew Point 36 °F
Humidity 41%
Rainfall 0.00 in
Snow Depth Not available.
UV 0 out of 12
Pollen 2.90 out of 12
Air Quality Not available.
Flu Activity Not available.
METAR KBJC 210353Z VRB03KT 20SM FEW120 14/04 A3009 RMK LAST

More Conditions Fewer Conditions

10-Day Weather Forecast

Almanac

Astronomy

Oct. 20, 2014 Rise Set
Actual Time 7:16 AM MDT 6:14 PM MDT
Civil Twilight 6:49 AM MDT 6:41 PM MDT
Nautical Twilight 6:17 AM MDT 7:12 PM MDT
Astronomical Twilight 5:46 AM MDT 7:44 PM MDT
Moon 4:07 AM MDT (10/20) 4:37 PM MDT (10/20)
Length of Visible Light 11h 52m
Length of Day
10h 57m
Tomorrow will be 2m 28s shorter.
Waning Crescent, 7% of the Moon is Illuminated
Oct 21
Waning Crescent
Oct 23
New
Oct 30
First Quarter
Nov 6
Full
Nov 14
Last Quarter

Yesterday's Extremes

State Highs State Lows

Community

WunderPhotos

Upload Photos

1,763,610 photos uploaded!

Nearby

Snow Depth

Station Depth Elevation
Echo Lake 0 in 10600 ft
Berthoud Summit 0 in 11300 ft
Jackwhacker Gulch 0 in 10960 ft
Copeland Lake 0 in 8600 ft
Wild Basin 0 in 9560 ft

Earthquake Activity

City Distance Mag. Time & Date
No recent earthquake activity has been reported nearby.
Minimum magnitude displayed is 2.5.

Coastal Water Temperatures

Place Temperature
No Stations Reporting

Nearby Weather Stations